Main page
METAR-TAF:

METAR-TAF

Airports :

Sandane Airport. Anda

Sandane, Norway

latitude: 61-50N, longitude: 006-07E, elevation: 6 m

Current weather observation

The report was made 19 minutes ago, at 18:20 UTC
Wind 11 kt from the West/Northwest, varying between West and Northwest
Temperature 16°C
Humidity 59%
Pressure 1016 hPa
Visibility 10 km or more

METAR: ENSD 231820Z AUTO 29011KT 260V320 9999 FEW051/// 16/08 Q1016 RMK WIND RWY 26 28011KT WIND 1140FT 31007G19KT

Time: 20:39 (18:39 UTC)

Forecast

The report was made 4 hours and 39 minutes ago, at 14:00 UTC
Forecast valid from 23 at 15 UTC to 23 at 21 UTC
Wind 9 kt from the West/Northwest
Visibility 10 km or more
Few clouds at a height of 4500 ft

TAF: ENSD 231400Z 2315/2321 30009KT 9999 FEW045

Weather observations and forecasts of more than 4000 airports (METAR and TAF reports).

The available stations are represented by yellow and red dots on the map.

Hover mouse over dot to see the name of the station.

Then click to see weather observations and forecasts.

To change the map : click on the green buttons with a black cross to zoom in, on the green button with a dash to zoom out, or on the green arrows for adjacent maps.


METAR-TAF: